sensor_id;sensor_type;location;lat;lon;timestamp;P1;durP1;ratioP1;P2;durP2;ratioP2
15573;SDS011;7888;46.748;8.102;2022-07-22T00:01:29;7.75;;;7.10;;
15573;SDS011;7888;46.748;8.102;2022-07-22T00:03:55;7.40;;;6.70;;
15573;SDS011;7888;46.748;8.102;2022-07-22T00:06:20;7.35;;;6.75;;
15573;SDS011;7888;46.748;8.102;2022-07-22T00:08:46;7.13;;;6.53;;
15573;SDS011;7888;46.748;8.102;2022-07-22T00:11:12;7.18;;;6.45;;
15573;SDS011;7888;46.748;8.102;2022-07-22T00:13:38;8.05;;;7.32;;
15573;SDS011;7888;46.748;8.102;2022-07-22T00:16:04;7.97;;;7.28;;
15573;SDS011;7888;46.748;8.102;2022-07-22T00:18:30;7.10;;;6.60;;
15573;SDS011;7888;46.748;8.102;2022-07-22T00:20:56;7.32;;;6.72;;
15573;SDS011;7888;46.748;8.102;2022-07-22T00:23:22;7.50;;;6.82;;
15573;SDS011;7888;46.748;8.102;2022-07-22T00:25:48;7.70;;;7.00;;
15573;SDS011;7888;46.748;8.102;2022-07-22T00:28:14;6.57;;;6.05;;
15573;SDS011;7888;46.748;8.102;2022-07-22T00:30:39;7.53;;;6.75;;
15573;SDS011;7888;46.748;8.102;2022-07-22T00:33:05;7.32;;;6.63;;
15573;SDS011;7888;46.748;8.102;2022-07-22T00:35:31;7.55;;;6.70;;
15573;SDS011;7888;46.748;8.102;2022-07-22T00:37:57;7.35;;;6.65;;
15573;SDS011;7888;46.748;8.102;2022-07-22T00:40:23;7.53;;;6.72;;
15573;SDS011;7888;46.748;8.102;2022-07-22T00:42:49;7.85;;;7.10;;
15573;SDS011;7888;46.748;8.102;2022-07-22T00:45:15;7.80;;;7.10;;
15573;SDS011;7888;46.748;8.102;2022-07-22T00:47:41;7.75;;;7.13;;
15573;SDS011;7888;46.748;8.102;2022-07-22T00:50:07;7.72;;;7.13;;
15573;SDS011;7888;46.748;8.102;2022-07-22T00:52:34;7.88;;;7.07;;
15573;SDS011;7888;46.748;8.102;2022-07-22T00:55:01;7.43;;;6.88;;
15573;SDS011;7888;46.748;8.102;2022-07-22T00:57:28;7.32;;;6.72;;
15573;SDS011;7888;46.748;8.102;2022-07-22T00:59:54;7.75;;;7.00;;
15573;SDS011;7888;46.748;8.102;2022-07-22T01:02:21;7.72;;;7.03;;
15573;SDS011;7888;46.748;8.102;2022-07-22T01:04:47;8.13;;;7.43;;
15573;SDS011;7888;46.748;8.102;2022-07-22T01:07:13;7.20;;;6.55;;
15573;SDS011;7888;46.748;8.102;2022-07-22T01:09:42;7.45;;;6.85;;
15573;SDS011;7888;46.748;8.102;2022-07-22T01:12:09;8.20;;;7.50;;
15573;SDS011;7888;46.748;8.102;2022-07-22T01:14:35;7.82;;;6.90;;
15573;SDS011;7888;46.748;8.102;2022-07-22T01:17:02;8.23;;;7.55;;
15573;SDS011;7888;46.748;8.102;2022-07-22T01:19:28;8.88;;;8.15;;
15573;SDS011;7888;46.748;8.102;2022-07-22T01:21:54;7.55;;;6.88;;
15573;SDS011;7888;46.748;8.102;2022-07-22T01:24:20;7.90;;;7.25;;
15573;SDS011;7888;46.748;8.102;2022-07-22T01:26:46;8.32;;;7.57;;
15573;SDS011;7888;46.748;8.102;2022-07-22T01:29:12;7.55;;;6.95;;
15573;SDS011;7888;46.748;8.102;2022-07-22T01:31:37;8.25;;;7.47;;
15573;SDS011;7888;46.748;8.102;2022-07-22T01:34:03;7.47;;;6.88;;
15573;SDS011;7888;46.748;8.102;2022-07-22T01:36:29;8.38;;;7.75;;
15573;SDS011;7888;46.748;8.102;2022-07-22T01:38:55;7.57;;;6.88;;
15573;SDS011;7888;46.748;8.102;2022-07-22T01:41:21;7.82;;;7.03;;
15573;SDS011;7888;46.748;8.102;2022-07-22T01:43:47;8.10;;;7.50;;
15573;SDS011;7888;46.748;8.102;2022-07-22T01:46:13;8.70;;;7.97;;
15573;SDS011;7888;46.748;8.102;2022-07-22T01:48:40;7.95;;;7.15;;
15573;SDS011;7888;46.748;8.102;2022-07-22T01:51:06;6.95;;;6.38;;
15573;SDS011;7888;46.748;8.102;2022-07-22T01:53:32;7.40;;;6.70;;
15573;SDS011;7888;46.748;8.102;2022-07-22T01:55:58;7.43;;;6.70;;
15573;SDS011;7888;46.748;8.102;2022-07-22T01:58:23;7.28;;;6.68;;
15573;SDS011;7888;46.748;8.102;2022-07-22T02:00:50;7.78;;;7.07;;
15573;SDS011;7888;46.748;8.102;2022-07-22T02:03:16;7.13;;;6.53;;
15573;SDS011;7888;46.748;8.102;2022-07-22T02:05:42;8.10;;;7.38;;
15573;SDS011;7888;46.748;8.102;2022-07-22T02:08:09;7.50;;;6.80;;
15573;SDS011;7888;46.748;8.102;2022-07-22T02:10:36;7.30;;;6.55;;
15573;SDS011;7888;46.748;8.102;2022-07-22T02:13:02;8.00;;;7.35;;
15573;SDS011;7888;46.748;8.102;2022-07-22T02:15:28;7.82;;;7.13;;
15573;SDS011;7888;46.748;8.102;2022-07-22T02:17:55;7.60;;;7.00;;
15573;SDS011;7888;46.748;8.102;2022-07-22T02:20:21;7.95;;;7.25;;
15573;SDS011;7888;46.748;8.102;2022-07-22T02:22:47;6.95;;;6.35;;
15573;SDS011;7888;46.748;8.102;2022-07-22T02:25:14;7.95;;;7.25;;
15573;SDS011;7888;46.748;8.102;2022-07-22T02:27:40;8.13;;;7.43;;
15573;SDS011;7888;46.748;8.102;2022-07-22T02:30:08;8.10;;;7.40;;
15573;SDS011;7888;46.748;8.102;2022-07-22T02:32:35;7.85;;;7.05;;
15573;SDS011;7888;46.748;8.102;2022-07-22T02:35:01;7.35;;;6.65;;
15573;SDS011;7888;46.748;8.102;2022-07-22T02:37:27;7.55;;;6.95;;
15573;SDS011;7888;46.748;8.102;2022-07-22T02:39:53;8.65;;;6.90;;
15573;SDS011;7888;46.748;8.102;2022-07-22T02:42:19;8.48;;;7.68;;
15573;SDS011;7888;46.748;8.102;2022-07-22T02:44:45;7.90;;;7.30;;
15573;SDS011;7888;46.748;8.102;2022-07-22T02:47:11;8.07;;;7.47;;
15573;SDS011;7888;46.748;8.102;2022-07-22T02:49:36;7.82;;;7.07;;
15573;SDS011;7888;46.748;8.102;2022-07-22T02:52:02;7.38;;;6.78;;
15573;SDS011;7888;46.748;8.102;2022-07-22T02:54:28;7.25;;;6.55;;
15573;SDS011;7888;46.748;8.102;2022-07-22T02:56:54;7.75;;;7.10;;
15573;SDS011;7888;46.748;8.102;2022-07-22T02:59:20;7.65;;;6.93;;
15573;SDS011;7888;46.748;8.102;2022-07-22T03:01:45;8.40;;;7.55;;
15573;SDS011;7888;46.748;8.102;2022-07-22T03:04:11;7.53;;;6.93;;
15573;SDS011;7888;46.748;8.102;2022-07-22T03:06:37;8.75;;;7.85;;
15573;SDS011;7888;46.748;8.102;2022-07-22T03:09:03;8.68;;;7.97;;
15573;SDS011;7888;46.748;8.102;2022-07-22T03:11:29;7.80;;;7.10;;
15573;SDS011;7888;46.748;8.102;2022-07-22T03:13:55;7.75;;;7.15;;
15573;SDS011;7888;46.748;8.102;2022-07-22T03:16:21;8.52;;;7.75;;
15573;SDS011;7888;46.748;8.102;2022-07-22T03:18:47;8.75;;;7.80;;
15573;SDS011;7888;46.748;8.102;2022-07-22T03:21:12;8.18;;;7.47;;
15573;SDS011;7888;46.748;8.102;2022-07-22T03:23:38;7.65;;;6.95;;
15573;SDS011;7888;46.748;8.102;2022-07-22T03:26:04;8.40;;;7.70;;
15573;SDS011;7888;46.748;8.102;2022-07-22T03:28:30;9.20;;;7.38;;
15573;SDS011;7888;46.748;8.102;2022-07-22T03:30:56;8.65;;;7.80;;
15573;SDS011;7888;46.748;8.102;2022-07-22T03:33:21;7.97;;;7.32;;
15573;SDS011;7888;46.748;8.102;2022-07-22T03:35:47;8.02;;;7.35;;
15573;SDS011;7888;46.748;8.102;2022-07-22T03:38:13;8.35;;;7.55;;
15573;SDS011;7888;46.748;8.102;2022-07-22T03:40:39;8.45;;;7.60;;
15573;SDS011;7888;46.748;8.102;2022-07-22T03:43:05;7.88;;;7.18;;
15573;SDS011;7888;46.748;8.102;2022-07-22T03:45:31;8.07;;;7.38;;
15573;SDS011;7888;46.748;8.102;2022-07-22T03:47:56;7.43;;;6.78;;
15573;SDS011;7888;46.748;8.102;2022-07-22T03:50:25;7.43;;;6.82;;
15573;SDS011;7888;46.748;8.102;2022-07-22T03:52:51;8.55;;;7.82;;
15573;SDS011;7888;46.748;8.102;2022-07-22T03:55:17;8.65;;;7.85;;
15573;SDS011;7888;46.748;8.102;2022-07-22T03:57:43;8.52;;;7.63;;
15573;SDS011;7888;46.748;8.102;2022-07-22T04:00:09;8.23;;;7.57;;
15573;SDS011;7888;46.748;8.102;2022-07-22T04:02:35;8.65;;;7.88;;
15573;SDS011;7888;46.748;8.102;2022-07-22T04:05:01;8.60;;;7.80;;
15573;SDS011;7888;46.748;8.102;2022-07-22T04:07:27;7.35;;;6.78;;
15573;SDS011;7888;46.748;8.102;2022-07-22T04:09:53;7.93;;;7.22;;
15573;SDS011;7888;46.748;8.102;2022-07-22T04:12:30;8.07;;;7.35;;
15573;SDS011;7888;46.748;8.102;2022-07-22T04:15:03;8.02;;;7.32;;
15573;SDS011;7888;46.748;8.102;2022-07-22T04:17:31;8.77;;;8.05;;
15573;SDS011;7888;46.748;8.102;2022-07-22T04:19:58;7.55;;;6.95;;
15573;SDS011;7888;46.748;8.102;2022-07-22T04:22:25;7.57;;;6.88;;
15573;SDS011;7888;46.748;8.102;2022-07-22T04:24:52;8.10;;;7.40;;
15573;SDS011;7888;46.748;8.102;2022-07-22T04:27:18;8.07;;;7.38;;
15573;SDS011;7888;46.748;8.102;2022-07-22T04:29:44;7.72;;;6.97;;
15573;SDS011;7888;46.748;8.102;2022-07-22T04:32:10;8.10;;;7.40;;
15573;SDS011;7888;46.748;8.102;2022-07-22T04:34:36;7.82;;;7.10;;
15573;SDS011;7888;46.748;8.102;2022-07-22T04:37:02;10.05;;;7.90;;
15573;SDS011;7888;46.748;8.102;2022-07-22T04:39:28;7.90;;;7.20;;
15573;SDS011;7888;46.748;8.102;2022-07-22T04:41:53;7.68;;;7.07;;
15573;SDS011;7888;46.748;8.102;2022-07-22T04:44:19;7.43;;;6.80;;
15573;SDS011;7888;46.748;8.102;2022-07-22T04:46:45;8.80;;;7.93;;
15573;SDS011;7888;46.748;8.102;2022-07-22T04:49:11;7.70;;;7.10;;
15573;SDS011;7888;46.748;8.102;2022-07-22T04:51:37;7.55;;;6.95;;
15573;SDS011;7888;46.748;8.102;2022-07-22T04:54:03;8.25;;;7.53;;
15573;SDS011;7888;46.748;8.102;2022-07-22T04:56:29;8.18;;;7.30;;
15573;SDS011;7888;46.748;8.102;2022-07-22T04:58:55;7.97;;;7.38;;
15573;SDS011;7888;46.748;8.102;2022-07-22T05:01:20;7.80;;;7.20;;
15573;SDS011;7888;46.748;8.102;2022-07-22T05:03:46;8.70;;;7.80;;
15573;SDS011;7888;46.748;8.102;2022-07-22T05:06:12;8.20;;;7.40;;
15573;SDS011;7888;46.748;8.102;2022-07-22T05:08:38;8.80;;;7.53;;
15573;SDS011;7888;46.748;8.102;2022-07-22T05:11:04;8.10;;;7.40;;
15573;SDS011;7888;46.748;8.102;2022-07-22T05:13:30;9.13;;;8.10;;
15573;SDS011;7888;46.748;8.102;2022-07-22T05:15:55;8.40;;;7.60;;
15573;SDS011;7888;46.748;8.102;2022-07-22T05:18:22;7.90;;;7.22;;
15573;SDS011;7888;46.748;8.102;2022-07-22T05:20:47;7.53;;;6.82;;
15573;SDS011;7888;46.748;8.102;2022-07-22T05:23:13;8.50;;;7.70;;
15573;SDS011;7888;46.748;8.102;2022-07-22T05:25:39;8.60;;;7.80;;
15573;SDS011;7888;46.748;8.102;2022-07-22T05:28:05;8.60;;;7.80;;
15573;SDS011;7888;46.748;8.102;2022-07-22T05:30:31;9.38;;;8.38;;
15573;SDS011;7888;46.748;8.102;2022-07-22T05:32:57;9.48;;;8.68;;
15573;SDS011;7888;46.748;8.102;2022-07-22T05:35:22;8.93;;;8.05;;
15573;SDS011;7888;46.748;8.102;2022-07-22T05:37:48;9.15;;;8.35;;
15573;SDS011;7888;46.748;8.102;2022-07-22T05:40:14;8.35;;;7.65;;
15573;SDS011;7888;46.748;8.102;2022-07-22T05:42:40;8.70;;;7.97;;
15573;SDS011;7888;46.748;8.102;2022-07-22T05:45:06;9.10;;;8.38;;
15573;SDS011;7888;46.748;8.102;2022-07-22T05:47:32;8.75;;;8.15;;
15573;SDS011;7888;46.748;8.102;2022-07-22T05:49:58;8.77;;;7.97;;
15573;SDS011;7888;46.748;8.102;2022-07-22T05:52:24;7.70;;;7.00;;
15573;SDS011;7888;46.748;8.102;2022-07-22T05:54:49;8.80;;;8.10;;
15573;SDS011;7888;46.748;8.102;2022-07-22T05:57:15;8.65;;;7.75;;
15573;SDS011;7888;46.748;8.102;2022-07-22T05:59:41;8.77;;;7.95;;
15573;SDS011;7888;46.748;8.102;2022-07-22T06:02:07;7.63;;;7.03;;
15573;SDS011;7888;46.748;8.102;2022-07-22T06:04:33;8.57;;;7.88;;
15573;SDS011;7888;46.748;8.102;2022-07-22T06:06:59;8.30;;;7.60;;
15573;SDS011;7888;46.748;8.102;2022-07-22T06:09:25;8.88;;;8.07;;
15573;SDS011;7888;46.748;8.102;2022-07-22T06:11:51;9.40;;;8.60;;
15573;SDS011;7888;46.748;8.102;2022-07-22T06:14:17;8.88;;;8.13;;
15573;SDS011;7888;46.748;8.102;2022-07-22T06:16:42;9.07;;;8.27;;
15573;SDS011;7888;46.748;8.102;2022-07-22T06:19:08;8.77;;;8.07;;
15573;SDS011;7888;46.748;8.102;2022-07-22T06:21:34;9.48;;;8.68;;
15573;SDS011;7888;46.748;8.102;2022-07-22T06:24:01;8.70;;;8.00;;
15573;SDS011;7888;46.748;8.102;2022-07-22T06:26:27;8.32;;;7.70;;
15573;SDS011;7888;46.748;8.102;2022-07-22T06:28:53;9.13;;;8.23;;
15573;SDS011;7888;46.748;8.102;2022-07-22T06:31:18;8.80;;;8.10;;
15573;SDS011;7888;46.748;8.102;2022-07-22T06:33:44;8.52;;;7.82;;
15573;SDS011;7888;46.748;8.102;2022-07-22T06:36:10;8.68;;;7.97;;
15573;SDS011;7888;46.748;8.102;2022-07-22T06:38:36;9.68;;;8.27;;
15573;SDS011;7888;46.748;8.102;2022-07-22T06:41:02;9.20;;;8.40;;
15573;SDS011;7888;46.748;8.102;2022-07-22T06:43:28;8.73;;;7.93;;
15573;SDS011;7888;46.748;8.102;2022-07-22T06:45:54;8.57;;;7.88;;
15573;SDS011;7888;46.748;8.102;2022-07-22T06:48:19;9.32;;;8.35;;
15573;SDS011;7888;46.748;8.102;2022-07-22T06:50:45;8.77;;;8.07;;
15573;SDS011;7888;46.748;8.102;2022-07-22T06:53:11;8.15;;;7.45;;
15573;SDS011;7888;46.748;8.102;2022-07-22T06:55:37;9.02;;;7.65;;
15573;SDS011;7888;46.748;8.102;2022-07-22T06:58:03;8.27;;;7.53;;
15573;SDS011;7888;46.748;8.102;2022-07-22T07:00:29;8.82;;;8.13;;
15573;SDS011;7888;46.748;8.102;2022-07-22T07:02:57;8.38;;;7.70;;
15573;SDS011;7888;46.748;8.102;2022-07-22T07:05:24;8.40;;;7.60;;
15573;SDS011;7888;46.748;8.102;2022-07-22T07:07:52;8.13;;;7.47;;
15573;SDS011;7888;46.748;8.102;2022-07-22T07:10:18;7.47;;;6.88;;
15573;SDS011;7888;46.748;8.102;2022-07-22T07:12:44;7.35;;;6.78;;
15573;SDS011;7888;46.748;8.102;2022-07-22T07:15:10;7.85;;;7.15;;
15573;SDS011;7888;46.748;8.102;2022-07-22T07:17:36;9.15;;;7.45;;
15573;SDS011;7888;46.748;8.102;2022-07-22T07:20:03;8.32;;;7.72;;
15573;SDS011;7888;46.748;8.102;2022-07-22T07:22:31;8.15;;;7.35;;
15573;SDS011;7888;46.748;8.102;2022-07-22T07:25:01;8.73;;;8.02;;
15573;SDS011;7888;46.748;8.102;2022-07-22T07:27:32;8.35;;;7.65;;
15573;SDS011;7888;46.748;8.102;2022-07-22T07:29:58;9.15;;;7.60;;
15573;SDS011;7888;46.748;8.102;2022-07-22T07:32:24;8.20;;;7.40;;
15573;SDS011;7888;46.748;8.102;2022-07-22T07:34:50;7.90;;;7.30;;
15573;SDS011;7888;46.748;8.102;2022-07-22T07:37:15;8.07;;;7.38;;
15573;SDS011;7888;46.748;8.102;2022-07-22T07:39:42;8.05;;;7.32;;
15573;SDS011;7888;46.748;8.102;2022-07-22T07:42:07;7.80;;;7.13;;
15573;SDS011;7888;46.748;8.102;2022-07-22T07:44:33;7.25;;;6.72;;
15573;SDS011;7888;46.748;8.102;2022-07-22T07:46:59;8.30;;;7.53;;
15573;SDS011;7888;46.748;8.102;2022-07-22T07:49:25;8.60;;;7.78;;
15573;SDS011;7888;46.748;8.102;2022-07-22T07:51:51;8.20;;;7.53;;
15573;SDS011;7888;46.748;8.102;2022-07-22T07:54:17;8.10;;;7.40;;
15573;SDS011;7888;46.748;8.102;2022-07-22T07:56:43;7.82;;;7.22;;
15573;SDS011;7888;46.748;8.102;2022-07-22T07:59:09;7.93;;;7.32;;
15573;SDS011;7888;46.748;8.102;2022-07-22T08:01:35;7.85;;;7.15;;
15573;SDS011;7888;46.748;8.102;2022-07-22T08:04:01;8.27;;;7.55;;
15573;SDS011;7888;46.748;8.102;2022-07-22T08:06:27;8.15;;;7.55;;
15573;SDS011;7888;46.748;8.102;2022-07-22T08:08:53;8.52;;;7.82;;
15573;SDS011;7888;46.748;8.102;2022-07-22T08:11:19;8.63;;;7.93;;
15573;SDS011;7888;46.748;8.102;2022-07-22T08:13:45;8.32;;;7.63;;
15573;SDS011;7888;46.748;8.102;2022-07-22T08:16:10;7.90;;;7.30;;
15573;SDS011;7888;46.748;8.102;2022-07-22T08:18:36;8.55;;;7.85;;
15573;SDS011;7888;46.748;8.102;2022-07-22T08:21:02;8.30;;;7.60;;
15573;SDS011;7888;46.748;8.102;2022-07-22T08:23:28;8.20;;;7.38;;
15573;SDS011;7888;46.748;8.102;2022-07-22T08:25:54;9.40;;;8.60;;
15573;SDS011;7888;46.748;8.102;2022-07-22T08:28:20;8.85;;;7.97;;
15573;SDS011;7888;46.748;8.102;2022-07-22T08:30:46;8.52;;;7.82;;
15573;SDS011;7888;46.748;8.102;2022-07-22T08:33:12;9.18;;;8.23;;
15573;SDS011;7888;46.748;8.102;2022-07-22T08:35:38;8.85;;;7.65;;
15573;SDS011;7888;46.748;8.102;2022-07-22T08:38:04;9.70;;;7.88;;
15573;SDS011;7888;46.748;8.102;2022-07-22T08:40:30;8.23;;;7.53;;
15573;SDS011;7888;46.748;8.102;2022-07-22T08:42:56;8.50;;;7.70;;
15573;SDS011;7888;46.748;8.102;2022-07-22T08:45:22;8.65;;;7.85;;
15573;SDS011;7888;46.748;8.102;2022-07-22T08:47:49;7.95;;;7.30;;
15573;SDS011;7888;46.748;8.102;2022-07-22T08:50:17;8.77;;;7.97;;
15573;SDS011;7888;46.748;8.102;2022-07-22T08:52:43;8.25;;;7.55;;
15573;SDS011;7888;46.748;8.102;2022-07-22T08:55:09;8.52;;;7.82;;
15573;SDS011;7888;46.748;8.102;2022-07-22T08:57:35;9.32;;;8.32;;
15573;SDS011;7888;46.748;8.102;2022-07-22T09:00:07;8.10;;;7.40;;
15573;SDS011;7888;46.748;8.102;2022-07-22T09:02:37;8.27;;;7.57;;
15573;SDS011;7888;46.748;8.102;2022-07-22T09:05:06;8.73;;;7.82;;
15573;SDS011;7888;46.748;8.102;2022-07-22T09:07:35;7.72;;;7.05;;
15573;SDS011;7888;46.748;8.102;2022-07-22T09:10:07;8.18;;;7.50;;
15573;SDS011;7888;46.748;8.102;2022-07-22T09:12:50;8.50;;;7.70;;
15573;SDS011;7888;46.748;8.102;2022-07-22T09:15:36;8.30;;;7.53;;
15573;SDS011;7888;46.748;8.102;2022-07-22T09:18:23;8.25;;;7.53;;
15573;SDS011;7888;46.748;8.102;2022-07-22T09:20:49;8.90;;;8.20;;
15573;SDS011;7888;46.748;8.102;2022-07-22T09:23:24;8.52;;;7.72;;
15573;SDS011;7888;46.748;8.102;2022-07-22T09:25:50;9.23;;;8.32;;
15573;SDS011;7888;46.748;8.102;2022-07-22T09:28:20;8.10;;;7.40;;
15573;SDS011;7888;46.748;8.102;2022-07-22T09:30:54;8.07;;;7.45;;
15573;SDS011;7888;46.748;8.102;2022-07-22T09:33:20;8.18;;;7.47;;
15573;SDS011;7888;46.748;8.102;2022-07-22T09:35:47;8.25;;;7.55;;
15573;SDS011;7888;46.748;8.102;2022-07-22T09:38:15;8.52;;;7.72;;
15573;SDS011;7888;46.748;8.102;2022-07-22T09:40:47;8.48;;;7.75;;
15573;SDS011;7888;46.748;8.102;2022-07-22T09:43:18;8.00;;;7.30;;
15573;SDS011;7888;46.748;8.102;2022-07-22T09:45:46;7.75;;;6.88;;
15573;SDS011;7888;46.748;8.102;2022-07-22T09:48:24;7.88;;;7.28;;
15573;SDS011;7888;46.748;8.102;2022-07-22T09:50:52;7.78;;;7.18;;
15573;SDS011;7888;46.748;8.102;2022-07-22T09:53:22;8.18;;;7.40;;
15573;SDS011;7888;46.748;8.102;2022-07-22T09:55:55;7.50;;;6.90;;
15573;SDS011;7888;46.748;8.102;2022-07-22T09:58:26;7.47;;;6.93;;
15573;SDS011;7888;46.748;8.102;2022-07-22T10:00:53;7.78;;;7.18;;
15573;SDS011;7888;46.748;8.102;2022-07-22T10:03:29;8.45;;;7.65;;
15573;SDS011;7888;46.748;8.102;2022-07-22T10:05:58;8.60;;;7.80;;
15573;SDS011;7888;46.748;8.102;2022-07-22T10:08:27;7.93;;;7.10;;
15573;SDS011;7888;46.748;8.102;2022-07-22T10:10:58;7.85;;;7.25;;
15573;SDS011;7888;46.748;8.102;2022-07-22T10:13:27;7.88;;;7.22;;
15573;SDS011;7888;46.748;8.102;2022-07-22T10:15:55;8.35;;;7.65;;
15573;SDS011;7888;46.748;8.102;2022-07-22T10:18:22;8.60;;;7.93;;
15573;SDS011;7888;46.748;8.102;2022-07-22T10:21:00;8.18;;;7.47;;
15573;SDS011;7888;46.748;8.102;2022-07-22T10:23:31;8.27;;;7.57;;
15573;SDS011;7888;46.748;8.102;2022-07-22T10:25:58;9.05;;;8.23;;
15573;SDS011;7888;46.748;8.102;2022-07-22T10:33:52;8.32;;;7.60;;
15573;SDS011;7888;46.748;8.102;2022-07-22T10:36:35;8.02;;;7.43;;
15573;SDS011;7888;46.748;8.102;2022-07-22T10:39:08;8.02;;;7.43;;
15573;SDS011;7888;46.748;8.102;2022-07-22T10:41:37;7.35;;;6.82;;
15573;SDS011;7888;46.748;8.102;2022-07-22T10:44:08;8.00;;;7.20;;
15573;SDS011;7888;46.748;8.102;2022-07-22T10:46:47;8.57;;;7.82;;
15573;SDS011;7888;46.748;8.102;2022-07-22T10:49:23;8.45;;;7.55;;
15573;SDS011;7888;46.748;8.102;2022-07-22T10:57:46;8.13;;;7.43;;
15573;SDS011;7888;46.748;8.102;2022-07-22T11:00:16;7.55;;;6.97;;
15573;SDS011;7888;46.748;8.102;2022-07-22T11:02:42;8.85;;;7.32;;
15573;SDS011;7888;46.748;8.102;2022-07-22T11:05:08;7.88;;;7.28;;
15573;SDS011;7888;46.748;8.102;2022-07-22T11:07:45;8.43;;;7.72;;
15573;SDS011;7888;46.748;8.102;2022-07-22T11:10:15;7.35;;;6.85;;
15573;SDS011;7888;46.748;8.102;2022-07-22T11:12:44;8.57;;;7.43;;
15573;SDS011;7888;46.748;8.102;2022-07-22T11:15:12;7.57;;;6.97;;
15573;SDS011;7888;46.748;8.102;2022-07-22T11:17:39;7.47;;;6.88;;
15573;SDS011;7888;46.748;8.102;2022-07-22T11:20:06;7.68;;;6.97;;
15573;SDS011;7888;46.748;8.102;2022-07-22T11:22:35;7.80;;;7.00;;
15573;SDS011;7888;46.748;8.102;2022-07-22T11:25:04;7.68;;;6.47;;
15573;SDS011;7888;46.748;8.102;2022-07-22T11:27:35;7.25;;;6.65;;
15573;SDS011;7888;46.748;8.102;2022-07-22T11:30:02;8.07;;;7.32;;
15573;SDS011;7888;46.748;8.102;2022-07-22T11:32:32;7.30;;;6.70;;
15573;SDS011;7888;46.748;8.102;2022-07-22T11:34:58;8.38;;;7.57;;
15573;SDS011;7888;46.748;8.102;2022-07-22T11:37:25;8.20;;;7.13;;
15573;SDS011;7888;46.748;8.102;2022-07-22T11:39:59;7.50;;;6.80;;
15573;SDS011;7888;46.748;8.102;2022-07-22T11:42:29;7.55;;;6.95;;
15573;SDS011;7888;46.748;8.102;2022-07-22T11:44:55;7.00;;;6.50;;
15573;SDS011;7888;46.748;8.102;2022-07-22T11:47:21;8.18;;;7.38;;
15573;SDS011;7888;46.748;8.102;2022-07-22T11:49:47;7.68;;;6.97;;
15573;SDS011;7888;46.748;8.102;2022-07-22T11:52:13;9.48;;;7.25;;
15573;SDS011;7888;46.748;8.102;2022-07-22T11:54:40;8.27;;;7.20;;
15573;SDS011;7888;46.748;8.102;2022-07-22T11:57:07;7.85;;;7.15;;
15573;SDS011;7888;46.748;8.102;2022-07-22T11:59:34;7.38;;;6.78;;
15573;SDS011;7888;46.748;8.102;2022-07-22T12:02:01;9.30;;;6.65;;
15573;SDS011;7888;46.748;8.102;2022-07-22T12:04:29;8.35;;;6.72;;
15573;SDS011;7888;46.748;8.102;2022-07-22T12:06:57;7.45;;;6.85;;
15573;SDS011;7888;46.748;8.102;2022-07-22T12:09:28;7.40;;;6.80;;
15573;SDS011;7888;46.748;8.102;2022-07-22T12:11:59;7.47;;;6.80;;
15573;SDS011;7888;46.748;8.102;2022-07-22T12:14:29;7.35;;;6.75;;
15573;SDS011;7888;46.748;8.102;2022-07-22T12:16:59;6.88;;;6.43;;
15573;SDS011;7888;46.748;8.102;2022-07-22T12:19:29;6.53;;;6.13;;
15573;SDS011;7888;46.748;8.102;2022-07-22T12:27:10;7.25;;;6.53;;
15573;SDS011;7888;46.748;8.102;2022-07-22T12:34:40;8.25;;;6.50;;
15573;SDS011;7888;46.748;8.102;2022-07-22T12:37:25;6.60;;;6.10;;
15573;SDS011;7888;46.748;8.102;2022-07-22T12:40:04;7.45;;;6.95;;
15573;SDS011;7888;46.748;8.102;2022-07-22T12:42:43;6.70;;;6.20;;
15573;SDS011;7888;46.748;8.102;2022-07-22T12:45:23;6.85;;;6.25;;
15573;SDS011;7888;46.748;8.102;2022-07-22T12:50:33;8.10;;;6.18;;
15573;SDS011;7888;46.748;8.102;2022-07-22T12:53:12;8.13;;;6.70;;
15573;SDS011;7888;46.748;8.102;2022-07-22T12:55:43;7.60;;;6.82;;
15573;SDS011;7888;46.748;8.102;2022-07-22T12:58:12;8.23;;;6.90;;
15573;SDS011;7888;46.748;8.102;2022-07-22T13:00:41;8.07;;;7.38;;
15573;SDS011;7888;46.748;8.102;2022-07-22T13:03:13;7.35;;;6.78;;
15573;SDS011;7888;46.748;8.102;2022-07-22T13:05:39;8.15;;;7.55;;
15573;SDS011;7888;46.748;8.102;2022-07-22T13:08:06;7.85;;;7.15;;
15573;SDS011;7888;46.748;8.102;2022-07-22T13:10:32;8.00;;;7.40;;
15573;SDS011;7888;46.748;8.102;2022-07-22T13:12:58;10.43;;;7.53;;
15573;SDS011;7888;46.748;8.102;2022-07-22T13:15:24;7.88;;;7.10;;
15573;SDS011;7888;46.748;8.102;2022-07-22T13:17:50;7.63;;;7.00;;
15573;SDS011;7888;46.748;8.102;2022-07-22T13:20:16;7.38;;;6.70;;
15573;SDS011;7888;46.748;8.102;2022-07-22T13:22:43;7.47;;;6.88;;
15573;SDS011;7888;46.748;8.102;2022-07-22T13:25:10;7.63;;;7.03;;
15573;SDS011;7888;46.748;8.102;2022-07-22T13:27:37;7.80;;;7.15;;
15573;SDS011;7888;46.748;8.102;2022-07-22T13:30:03;7.50;;;6.90;;
15573;SDS011;7888;46.748;8.102;2022-07-22T13:32:30;8.02;;;7.22;;
15573;SDS011;7888;46.748;8.102;2022-07-22T13:34:56;7.88;;;7.28;;
15573;SDS011;7888;46.748;8.102;2022-07-22T13:37:22;7.25;;;6.65;;
15573;SDS011;7888;46.748;8.102;2022-07-22T13:39:48;8.05;;;7.28;;
15573;SDS011;7888;46.748;8.102;2022-07-22T13:42:15;7.68;;;7.07;;
15573;SDS011;7888;46.748;8.102;2022-07-22T13:44:45;7.72;;;6.95;;
15573;SDS011;7888;46.748;8.102;2022-07-22T13:47:12;7.68;;;7.18;;
15573;SDS011;7888;46.748;8.102;2022-07-22T13:49:39;7.25;;;6.75;;
15573;SDS011;7888;46.748;8.102;2022-07-22T13:52:06;7.28;;;6.68;;
15573;SDS011;7888;46.748;8.102;2022-07-22T13:54:32;7.35;;;6.85;;
15573;SDS011;7888;46.748;8.102;2022-07-22T13:56:59;8.05;;;7.45;;
15573;SDS011;7888;46.748;8.102;2022-07-22T13:59:25;7.97;;;7.28;;
15573;SDS011;7888;46.748;8.102;2022-07-22T14:01:53;7.65;;;7.00;;
15573;SDS011;7888;46.748;8.102;2022-07-22T14:04:18;8.02;;;7.25;;
15573;SDS011;7888;46.748;8.102;2022-07-22T14:06:44;7.65;;;6.97;;
15573;SDS011;7888;46.748;8.102;2022-07-22T14:09:10;7.82;;;7.13;;
15573;SDS011;7888;46.748;8.102;2022-07-22T14:11:36;7.35;;;6.75;;
15573;SDS011;7888;46.748;8.102;2022-07-22T14:14:02;7.53;;;6.93;;
15573;SDS011;7888;46.748;8.102;2022-07-22T14:16:28;8.63;;;7.78;;
15573;SDS011;7888;46.748;8.102;2022-07-22T14:19:04;8.40;;;7.80;;
15573;SDS011;7888;46.748;8.102;2022-07-22T14:21:32;7.60;;;7.00;;
15573;SDS011;7888;46.748;8.102;2022-07-22T14:24:00;7.63;;;6.93;;
15573;SDS011;7888;46.748;8.102;2022-07-22T14:26:27;8.15;;;7.45;;
15573;SDS011;7888;46.748;8.102;2022-07-22T14:28:54;8.20;;;7.50;;
15573;SDS011;7888;46.748;8.102;2022-07-22T14:31:20;7.45;;;6.75;;
15573;SDS011;7888;46.748;8.102;2022-07-22T14:33:47;7.10;;;6.47;;
15573;SDS011;7888;46.748;8.102;2022-07-22T14:36:13;7.88;;;7.28;;
15573;SDS011;7888;46.748;8.102;2022-07-22T14:38:39;7.22;;;6.63;;
15573;SDS011;7888;46.748;8.102;2022-07-22T14:41:05;6.93;;;6.38;;
15573;SDS011;7888;46.748;8.102;2022-07-22T14:43:32;6.43;;;5.93;;
15573;SDS011;7888;46.748;8.102;2022-07-22T14:45:59;7.03;;;6.43;;
15573;SDS011;7888;46.748;8.102;2022-07-22T14:48:26;7.20;;;6.60;;
15573;SDS011;7888;46.748;8.102;2022-07-22T14:50:53;6.82;;;6.22;;
15573;SDS011;7888;46.748;8.102;2022-07-22T14:53:19;7.22;;;6.47;;
15573;SDS011;7888;46.748;8.102;2022-07-22T14:55:45;7.47;;;6.78;;
15573;SDS011;7888;46.748;8.102;2022-07-22T14:58:11;6.50;;;6.05;;
15573;SDS011;7888;46.748;8.102;2022-07-22T15:00:36;6.53;;;6.03;;
15573;SDS011;7888;46.748;8.102;2022-07-22T15:03:02;6.63;;;6.13;;
15573;SDS011;7888;46.748;8.102;2022-07-22T15:05:28;6.85;;;6.35;;
15573;SDS011;7888;46.748;8.102;2022-07-22T15:07:54;6.13;;;5.70;;
15573;SDS011;7888;46.748;8.102;2022-07-22T15:10:20;6.47;;;5.97;;
15573;SDS011;7888;46.748;8.102;2022-07-22T15:12:46;6.95;;;6.30;;
15573;SDS011;7888;46.748;8.102;2022-07-22T15:15:12;6.55;;;5.97;;
15573;SDS011;7888;46.748;8.102;2022-07-22T15:17:38;6.70;;;6.10;;
15573;SDS011;7888;46.748;8.102;2022-07-22T15:20:04;6.15;;;5.75;;
15573;SDS011;7888;46.748;8.102;2022-07-22T15:22:32;6.47;;;6.07;;
15573;SDS011;7888;46.748;8.102;2022-07-22T15:24:58;6.75;;;6.25;;